sensor_id;sensor_type;location;lat;lon;timestamp;temperature;humidity
13652;DHT22;6899;51.546;6.912;2023-02-19T00:00:58;9.60;99.90
13652;DHT22;6899;51.546;6.912;2023-02-19T00:03:26;9.60;99.90
13652;DHT22;6899;51.546;6.912;2023-02-19T00:05:53;9.70;99.90
13652;DHT22;6899;51.546;6.912;2023-02-19T00:08:20;9.60;99.90
13652;DHT22;6899;51.546;6.912;2023-02-19T00:10:47;9.60;99.90
13652;DHT22;6899;51.546;6.912;2023-02-19T00:13:14;9.60;99.90
13652;DHT22;6899;51.546;6.912;2023-02-19T00:15:41;9.60;99.90
13652;DHT22;6899;51.546;6.912;2023-02-19T00:18:07;9.60;99.90
13652;DHT22;6899;51.546;6.912;2023-02-19T00:20:36;9.60;99.90
13652;DHT22;6899;51.546;6.912;2023-02-19T00:23:02;9.60;99.90
13652;DHT22;6899;51.546;6.912;2023-02-19T00:25:29;9.60;99.90
13652;DHT22;6899;51.546;6.912;2023-02-19T00:27:56;9.70;99.90
13652;DHT22;6899;51.546;6.912;2023-02-19T00:30:23;9.70;99.90
13652;DHT22;6899;51.546;6.912;2023-02-19T00:32:50;9.60;99.90
13652;DHT22;6899;51.546;6.912;2023-02-19T00:35:20;9.70;99.90
13652;DHT22;6899;51.546;6.912;2023-02-19T00:37:48;9.60;99.90
13652;DHT22;6899;51.546;6.912;2023-02-19T00:40:15;9.60;99.90
13652;DHT22;6899;51.546;6.912;2023-02-19T00:42:42;9.60;99.90
13652;DHT22;6899;51.546;6.912;2023-02-19T00:45:09;9.70;99.90
13652;DHT22;6899;51.546;6.912;2023-02-19T00:47:36;9.60;99.90
13652;DHT22;6899;51.546;6.912;2023-02-19T00:50:03;9.70;99.90
13652;DHT22;6899;51.546;6.912;2023-02-19T00:52:30;9.70;99.90
13652;DHT22;6899;51.546;6.912;2023-02-19T00:54:58;9.70;99.90
13652;DHT22;6899;51.546;6.912;2023-02-19T00:57:28;9.60;99.90
13652;DHT22;6899;51.546;6.912;2023-02-19T00:59:55;9.60;99.90
13652;DHT22;6899;51.546;6.912;2023-02-19T01:02:21;9.70;99.90
13652;DHT22;6899;51.546;6.912;2023-02-19T01:04:48;9.60;99.90
13652;DHT22;6899;51.546;6.912;2023-02-19T01:07:15;9.60;99.90
13652;DHT22;6899;51.546;6.912;2023-02-19T01:09:42;9.60;99.90
13652;DHT22;6899;51.546;6.912;2023-02-19T01:12:10;9.60;99.90
13652;DHT22;6899;51.546;6.912;2023-02-19T01:14:37;9.50;99.90
13652;DHT22;6899;51.546;6.912;2023-02-19T01:17:04;9.60;99.90
13652;DHT22;6899;51.546;6.912;2023-02-19T01:19:31;9.60;99.90
13652;DHT22;6899;51.546;6.912;2023-02-19T01:21:57;9.70;99.90
13652;DHT22;6899;51.546;6.912;2023-02-19T01:24:24;9.50;99.90
13652;DHT22;6899;51.546;6.912;2023-02-19T01:26:51;9.60;99.90
13652;DHT22;6899;51.546;6.912;2023-02-19T01:29:19;9.60;99.90
13652;DHT22;6899;51.546;6.912;2023-02-19T01:31:46;9.60;99.90
13652;DHT22;6899;51.546;6.912;2023-02-19T01:34:13;9.50;99.90
13652;DHT22;6899;51.546;6.912;2023-02-19T01:36:40;9.50;99.90
13652;DHT22;6899;51.546;6.912;2023-02-19T01:39:07;9.50;99.90
13652;DHT22;6899;51.546;6.912;2023-02-19T01:41:36;9.50;99.90
13652;DHT22;6899;51.546;6.912;2023-02-19T01:44:06;9.50;99.90
13652;DHT22;6899;51.546;6.912;2023-02-19T01:46:35;9.50;99.90
13652;DHT22;6899;51.546;6.912;2023-02-19T01:49:06;9.50;99.90
13652;DHT22;6899;51.546;6.912;2023-02-19T01:51:36;9.50;99.90
13652;DHT22;6899;51.546;6.912;2023-02-19T01:54:05;9.50;99.90
13652;DHT22;6899;51.546;6.912;2023-02-19T01:56:35;9.50;99.90
13652;DHT22;6899;51.546;6.912;2023-02-19T01:59:04;9.50;99.90
13652;DHT22;6899;51.546;6.912;2023-02-19T02:01:35;9.50;99.90
13652;DHT22;6899;51.546;6.912;2023-02-19T02:04:03;9.40;99.90
13652;DHT22;6899;51.546;6.912;2023-02-19T02:06:34;9.40;99.90
13652;DHT22;6899;51.546;6.912;2023-02-19T02:09:03;9.40;99.90
13652;DHT22;6899;51.546;6.912;2023-02-19T02:11:49;9.40;99.90
13652;DHT22;6899;51.546;6.912;2023-02-19T02:14:18;9.50;99.90
13652;DHT22;6899;51.546;6.912;2023-02-19T02:16:54;9.40;99.90
13652;DHT22;6899;51.546;6.912;2023-02-19T02:19:35;9.40;99.90
13652;DHT22;6899;51.546;6.912;2023-02-19T02:22:12;9.40;99.90
13652;DHT22;6899;51.546;6.912;2023-02-19T02:24:57;9.40;99.90
13652;DHT22;6899;51.546;6.912;2023-02-19T02:27:37;9.30;99.90
13652;DHT22;6899;51.546;6.912;2023-02-19T02:30:28;9.30;99.90
13652;DHT22;6899;51.546;6.912;2023-02-19T02:33:02;9.30;99.90
13652;DHT22;6899;51.546;6.912;2023-02-19T02:35:35;9.30;99.90
13652;DHT22;6899;51.546;6.912;2023-02-19T02:38:07;9.30;99.90
13652;DHT22;6899;51.546;6.912;2023-02-19T02:40:36;9.30;99.90
13652;DHT22;6899;51.546;6.912;2023-02-19T02:43:05;9.30;99.90
13652;DHT22;6899;51.546;6.912;2023-02-19T02:45:33;9.30;99.90
13652;DHT22;6899;51.546;6.912;2023-02-19T02:48:01;9.30;99.90
13652;DHT22;6899;51.546;6.912;2023-02-19T02:50:33;9.30;99.90
13652;DHT22;6899;51.546;6.912;2023-02-19T02:53:07;9.30;99.90
13652;DHT22;6899;51.546;6.912;2023-02-19T02:55:59;9.30;99.90
13652;DHT22;6899;51.546;6.912;2023-02-19T02:58:28;9.20;99.90
13652;DHT22;6899;51.546;6.912;2023-02-19T03:01:04;9.20;99.90
13652;DHT22;6899;51.546;6.912;2023-02-19T03:03:56;9.30;99.90
13652;DHT22;6899;51.546;6.912;2023-02-19T03:06:29;9.20;99.90
13652;DHT22;6899;51.546;6.912;2023-02-19T03:09:01;9.20;99.90
13652;DHT22;6899;51.546;6.912;2023-02-19T03:11:37;9.20;99.90
13652;DHT22;6899;51.546;6.912;2023-02-19T03:14:30;9.20;99.90
13652;DHT22;6899;51.546;6.912;2023-02-19T03:17:30;9.20;99.90
13652;DHT22;6899;51.546;6.912;2023-02-19T03:20:20;9.20;99.90
13652;DHT22;6899;51.546;6.912;2023-02-19T03:22:50;9.10;99.90
13652;DHT22;6899;51.546;6.912;2023-02-19T03:25:19;9.20;99.90
13652;DHT22;6899;51.546;6.912;2023-02-19T03:28:07;9.20;99.90
13652;DHT22;6899;51.546;6.912;2023-02-19T03:30:39;9.20;99.90
13652;DHT22;6899;51.546;6.912;2023-02-19T03:33:11;9.10;99.90
13652;DHT22;6899;51.546;6.912;2023-02-19T03:35:41;9.10;99.90
13652;DHT22;6899;51.546;6.912;2023-02-19T03:38:12;9.10;99.90
13652;DHT22;6899;51.546;6.912;2023-02-19T03:40:49;9.10;99.90
13652;DHT22;6899;51.546;6.912;2023-02-19T03:43:20;9.10;99.90
13652;DHT22;6899;51.546;6.912;2023-02-19T03:45:53;9.10;99.90
13652;DHT22;6899;51.546;6.912;2023-02-19T03:48:28;9.10;99.90
13652;DHT22;6899;51.546;6.912;2023-02-19T03:51:11;9.10;99.90
13652;DHT22;6899;51.546;6.912;2023-02-19T03:53:48;9.10;99.90
13652;DHT22;6899;51.546;6.912;2023-02-19T03:56:24;9.00;99.90
13652;DHT22;6899;51.546;6.912;2023-02-19T03:58:57;8.90;99.90
13652;DHT22;6899;51.546;6.912;2023-02-19T04:01:32;9.00;99.90
13652;DHT22;6899;51.546;6.912;2023-02-19T04:04:08;9.00;99.90
13652;DHT22;6899;51.546;6.912;2023-02-19T04:06:39;9.00;99.90
13652;DHT22;6899;51.546;6.912;2023-02-19T04:09:08;8.90;99.90
13652;DHT22;6899;51.546;6.912;2023-02-19T04:11:37;8.90;99.90
13652;DHT22;6899;51.546;6.912;2023-02-19T04:14:07;8.90;99.90
13652;DHT22;6899;51.546;6.912;2023-02-19T04:16:38;8.90;99.90
13652;DHT22;6899;51.546;6.912;2023-02-19T04:19:10;8.90;99.90
13652;DHT22;6899;51.546;6.912;2023-02-19T04:21:39;8.90;99.90
13652;DHT22;6899;51.546;6.912;2023-02-19T04:24:09;9.00;99.90
13652;DHT22;6899;51.546;6.912;2023-02-19T04:26:39;8.80;99.90
13652;DHT22;6899;51.546;6.912;2023-02-19T04:29:12;8.90;99.90
13652;DHT22;6899;51.546;6.912;2023-02-19T04:31:39;8.80;99.90
13652;DHT22;6899;51.546;6.912;2023-02-19T04:34:07;8.90;99.90
13652;DHT22;6899;51.546;6.912;2023-02-19T04:36:34;8.90;99.90
13652;DHT22;6899;51.546;6.912;2023-02-19T04:39:01;8.80;99.90
13652;DHT22;6899;51.546;6.912;2023-02-19T04:41:32;8.80;99.90
13652;DHT22;6899;51.546;6.912;2023-02-19T04:43:59;8.80;99.90
13652;DHT22;6899;51.546;6.912;2023-02-19T04:46:26;8.80;99.90
13652;DHT22;6899;51.546;6.912;2023-02-19T04:48:56;8.80;99.90
13652;DHT22;6899;51.546;6.912;2023-02-19T04:51:30;8.80;99.90
13652;DHT22;6899;51.546;6.912;2023-02-19T04:53:57;8.70;99.90
13652;DHT22;6899;51.546;6.912;2023-02-19T04:56:23;8.70;99.90
13652;DHT22;6899;51.546;6.912;2023-02-19T04:58:50;8.70;99.90
13652;DHT22;6899;51.546;6.912;2023-02-19T05:01:17;8.70;99.90
13652;DHT22;6899;51.546;6.912;2023-02-19T05:03:44;8.70;99.90
13652;DHT22;6899;51.546;6.912;2023-02-19T05:06:12;8.70;99.90
13652;DHT22;6899;51.546;6.912;2023-02-19T05:08:41;8.70;99.90
13652;DHT22;6899;51.546;6.912;2023-02-19T05:11:09;8.80;99.90
13652;DHT22;6899;51.546;6.912;2023-02-19T05:13:37;8.70;99.90
13652;DHT22;6899;51.546;6.912;2023-02-19T05:16:06;8.70;99.90
13652;DHT22;6899;51.546;6.912;2023-02-19T05:18:33;8.70;99.90
13652;DHT22;6899;51.546;6.912;2023-02-19T05:21:01;8.70;99.90
13652;DHT22;6899;51.546;6.912;2023-02-19T05:23:28;8.70;99.90
13652;DHT22;6899;51.546;6.912;2023-02-19T05:25:56;8.70;99.90
13652;DHT22;6899;51.546;6.912;2023-02-19T05:28:26;8.70;99.90
13652;DHT22;6899;51.546;6.912;2023-02-19T05:30:55;8.70;99.90
13652;DHT22;6899;51.546;6.912;2023-02-19T05:33:23;8.70;99.90
13652;DHT22;6899;51.546;6.912;2023-02-19T05:35:53;8.70;99.90
13652;DHT22;6899;51.546;6.912;2023-02-19T05:38:21;8.70;99.90
13652;DHT22;6899;51.546;6.912;2023-02-19T05:40:51;8.60;99.90
13652;DHT22;6899;51.546;6.912;2023-02-19T05:43:20;8.60;99.90
13652;DHT22;6899;51.546;6.912;2023-02-19T05:45:47;8.70;99.90
13652;DHT22;6899;51.546;6.912;2023-02-19T05:48:17;8.80;99.90
13652;DHT22;6899;51.546;6.912;2023-02-19T05:50:44;8.70;99.90
13652;DHT22;6899;51.546;6.912;2023-02-19T05:53:11;8.60;99.90
13652;DHT22;6899;51.546;6.912;2023-02-19T05:55:38;8.60;99.90
13652;DHT22;6899;51.546;6.912;2023-02-19T05:58:05;8.60;99.90
13652;DHT22;6899;51.546;6.912;2023-02-19T06:00:34;8.70;99.90
13652;DHT22;6899;51.546;6.912;2023-02-19T06:03:01;8.60;99.90
13652;DHT22;6899;51.546;6.912;2023-02-19T06:05:31;8.60;99.90
13652;DHT22;6899;51.546;6.912;2023-02-19T06:08:02;8.60;99.90
13652;DHT22;6899;51.546;6.912;2023-02-19T06:10:37;8.60;99.90
13652;DHT22;6899;51.546;6.912;2023-02-19T06:13:05;8.50;99.90
13652;DHT22;6899;51.546;6.912;2023-02-19T06:15:37;8.60;99.90
13652;DHT22;6899;51.546;6.912;2023-02-19T06:18:09;8.60;99.90
13652;DHT22;6899;51.546;6.912;2023-02-19T06:20:36;8.60;99.90
13652;DHT22;6899;51.546;6.912;2023-02-19T06:23:02;8.60;99.90
13652;DHT22;6899;51.546;6.912;2023-02-19T06:25:29;8.60;99.90
13652;DHT22;6899;51.546;6.912;2023-02-19T06:27:56;8.50;99.90
13652;DHT22;6899;51.546;6.912;2023-02-19T06:30:23;8.50;99.90
13652;DHT22;6899;51.546;6.912;2023-02-19T06:32:54;8.60;99.90
13652;DHT22;6899;51.546;6.912;2023-02-19T06:35:21;8.60;99.90
13652;DHT22;6899;51.546;6.912;2023-02-19T06:37:48;8.50;99.90
13652;DHT22;6899;51.546;6.912;2023-02-19T06:40:15;8.50;99.90
13652;DHT22;6899;51.546;6.912;2023-02-19T06:42:44;8.60;99.90
13652;DHT22;6899;51.546;6.912;2023-02-19T06:45:14;8.50;99.90
13652;DHT22;6899;51.546;6.912;2023-02-19T06:47:40;8.50;99.90
13652;DHT22;6899;51.546;6.912;2023-02-19T06:50:09;8.60;99.90
13652;DHT22;6899;51.546;6.912;2023-02-19T06:52:36;8.50;99.90
13652;DHT22;6899;51.546;6.912;2023-02-19T06:55:05;8.50;99.90
13652;DHT22;6899;51.546;6.912;2023-02-19T06:57:32;8.50;99.90
13652;DHT22;6899;51.546;6.912;2023-02-19T07:00:06;8.60;99.90
13652;DHT22;6899;51.546;6.912;2023-02-19T07:02:36;8.60;99.90
13652;DHT22;6899;51.546;6.912;2023-02-19T07:05:03;8.60;99.90
13652;DHT22;6899;51.546;6.912;2023-02-19T07:07:32;8.60;99.90
13652;DHT22;6899;51.546;6.912;2023-02-19T07:09:59;8.60;99.90
13652;DHT22;6899;51.546;6.912;2023-02-19T07:12:26;8.60;99.90
13652;DHT22;6899;51.546;6.912;2023-02-19T07:14:52;8.60;99.90
13652;DHT22;6899;51.546;6.912;2023-02-19T07:17:19;8.50;99.90
13652;DHT22;6899;51.546;6.912;2023-02-19T07:19:46;8.50;99.90
13652;DHT22;6899;51.546;6.912;2023-02-19T07:24:59;8.50;99.90
13652;DHT22;6899;51.546;6.912;2023-02-19T07:27:32;8.60;99.90
13652;DHT22;6899;51.546;6.912;2023-02-19T07:30:03;8.60;99.90
13652;DHT22;6899;51.546;6.912;2023-02-19T07:32:31;8.50;99.90
13652;DHT22;6899;51.546;6.912;2023-02-19T07:35:00;8.60;99.90
13652;DHT22;6899;51.546;6.912;2023-02-19T07:37:28;8.60;99.90
13652;DHT22;6899;51.546;6.912;2023-02-19T07:39:56;8.60;99.90
13652;DHT22;6899;51.546;6.912;2023-02-19T07:42:25;8.60;99.90
13652;DHT22;6899;51.546;6.912;2023-02-19T07:44:52;8.60;99.90
13652;DHT22;6899;51.546;6.912;2023-02-19T07:47:19;8.60;99.90
13652;DHT22;6899;51.546;6.912;2023-02-19T07:49:46;8.60;99.90
13652;DHT22;6899;51.546;6.912;2023-02-19T07:52:13;8.60;99.90
13652;DHT22;6899;51.546;6.912;2023-02-19T07:54:43;8.60;99.90
13652;DHT22;6899;51.546;6.912;2023-02-19T07:57:10;8.60;99.90
13652;DHT22;6899;51.546;6.912;2023-02-19T07:59:39;8.70;99.90
13652;DHT22;6899;51.546;6.912;2023-02-19T08:02:14;8.80;99.90
13652;DHT22;6899;51.546;6.912;2023-02-19T08:04:59;8.80;99.90
13652;DHT22;6899;51.546;6.912;2023-02-19T08:07:30;8.80;99.90
13652;DHT22;6899;51.546;6.912;2023-02-19T08:09:57;8.80;99.90
13652;DHT22;6899;51.546;6.912;2023-02-19T08:12:54;8.80;99.90
13652;DHT22;6899;51.546;6.912;2023-02-19T08:15:40;8.90;99.90
13652;DHT22;6899;51.546;6.912;2023-02-19T08:18:07;8.90;99.90
13652;DHT22;6899;51.546;6.912;2023-02-19T08:20:34;9.00;99.90
13652;DHT22;6899;51.546;6.912;2023-02-19T08:23:02;9.00;99.90
13652;DHT22;6899;51.546;6.912;2023-02-19T08:25:29;9.00;99.90
13652;DHT22;6899;51.546;6.912;2023-02-19T08:27:56;9.20;99.90
13652;DHT22;6899;51.546;6.912;2023-02-19T08:30:25;9.30;99.90
13652;DHT22;6899;51.546;6.912;2023-02-19T08:32:53;9.30;99.90
13652;DHT22;6899;51.546;6.912;2023-02-19T08:35:22;9.30;99.90
13652;DHT22;6899;51.546;6.912;2023-02-19T08:37:49;9.30;99.90
13652;DHT22;6899;51.546;6.912;2023-02-19T08:40:16;9.40;99.90
13652;DHT22;6899;51.546;6.912;2023-02-19T08:42:43;9.50;99.90
13652;DHT22;6899;51.546;6.912;2023-02-19T08:45:10;9.50;99.90
13652;DHT22;6899;51.546;6.912;2023-02-19T08:47:42;9.50;99.90
13652;DHT22;6899;51.546;6.912;2023-02-19T08:50:11;9.70;99.90
13652;DHT22;6899;51.546;6.912;2023-02-19T08:52:38;9.70;99.90
13652;DHT22;6899;51.546;6.912;2023-02-19T08:55:05;9.70;99.90
13652;DHT22;6899;51.546;6.912;2023-02-19T08:57:34;9.70;99.90
13652;DHT22;6899;51.546;6.912;2023-02-19T09:00:06;9.70;99.90
13652;DHT22;6899;51.546;6.912;2023-02-19T09:02:34;9.90;99.90
13652;DHT22;6899;51.546;6.912;2023-02-19T09:05:01;9.70;99.90
13652;DHT22;6899;51.546;6.912;2023-02-19T09:07:33;9.60;99.90
13652;DHT22;6899;51.546;6.912;2023-02-19T09:10:02;9.60;99.90
13652;DHT22;6899;51.546;6.912;2023-02-19T09:12:29;9.50;99.90
13652;DHT22;6899;51.546;6.912;2023-02-19T09:14:58;9.50;99.90
13652;DHT22;6899;51.546;6.912;2023-02-19T09:17:25;9.60;99.90
13652;DHT22;6899;51.546;6.912;2023-02-19T09:19:53;9.70;99.90
13652;DHT22;6899;51.546;6.912;2023-02-19T09:22:21;9.80;99.90
13652;DHT22;6899;51.546;6.912;2023-02-19T09:24:49;10.00;99.90
13652;DHT22;6899;51.546;6.912;2023-02-19T09:27:19;10.10;99.90
13652;DHT22;6899;51.546;6.912;2023-02-19T09:29:46;10.10;99.90
13652;DHT22;6899;51.546;6.912;2023-02-19T09:32:13;10.00;99.90
13652;DHT22;6899;51.546;6.912;2023-02-19T09:34:40;9.90;99.90
13652;DHT22;6899;51.546;6.912;2023-02-19T09:37:10;9.80;99.90
13652;DHT22;6899;51.546;6.912;2023-02-19T09:39:37;9.60;99.90
13652;DHT22;6899;51.546;6.912;2023-02-19T09:42:11;9.40;99.90
13652;DHT22;6899;51.546;6.912;2023-02-19T09:44:41;9.50;99.90
13652;DHT22;6899;51.546;6.912;2023-02-19T09:47:15;9.30;99.90
13652;DHT22;6899;51.546;6.912;2023-02-19T09:49:45;9.40;99.90
13652;DHT22;6899;51.546;6.912;2023-02-19T09:52:22;9.70;99.90
13652;DHT22;6899;51.546;6.912;2023-02-19T09:54:50;9.70;99.90
13652;DHT22;6899;51.546;6.912;2023-02-19T09:57:24;9.70;99.90
13652;DHT22;6899;51.546;6.912;2023-02-19T10:00:00;10.00;99.90
13652;DHT22;6899;51.546;6.912;2023-02-19T10:02:29;10.10;99.90
13652;DHT22;6899;51.546;6.912;2023-02-19T10:05:11;10.10;99.90
13652;DHT22;6899;51.546;6.912;2023-02-19T10:07:48;10.20;99.90
13652;DHT22;6899;51.546;6.912;2023-02-19T10:10:23;10.30;99.90
13652;DHT22;6899;51.546;6.912;2023-02-19T10:12:55;10.30;99.90
13652;DHT22;6899;51.546;6.912;2023-02-19T10:15:29;10.50;99.90
13652;DHT22;6899;51.546;6.912;2023-02-19T10:17:58;10.50;99.90
13652;DHT22;6899;51.546;6.912;2023-02-19T10:20:25;10.30;99.90
13652;DHT22;6899;51.546;6.912;2023-02-19T10:22:58;10.20;99.90
13652;DHT22;6899;51.546;6.912;2023-02-19T10:25:26;10.20;99.90
13652;DHT22;6899;51.546;6.912;2023-02-19T10:27:56;10.10;99.90
13652;DHT22;6899;51.546;6.912;2023-02-19T10:30:27;10.30;99.90
13652;DHT22;6899;51.546;6.912;2023-02-19T10:33:00;10.40;99.90
13652;DHT22;6899;51.546;6.912;2023-02-19T10:35:28;10.40;99.90
13652;DHT22;6899;51.546;6.912;2023-02-19T10:37:55;10.60;99.90
13652;DHT22;6899;51.546;6.912;2023-02-19T10:40:25;10.60;99.90
13652;DHT22;6899;51.546;6.912;2023-02-19T10:42:56;10.50;99.90
13652;DHT22;6899;51.546;6.912;2023-02-19T10:45:28;10.40;99.90
13652;DHT22;6899;51.546;6.912;2023-02-19T10:47:59;10.20;99.90
13652;DHT22;6899;51.546;6.912;2023-02-19T10:50:28;10.20;99.90
13652;DHT22;6899;51.546;6.912;2023-02-19T10:52:57;10.30;99.90
13652;DHT22;6899;51.546;6.912;2023-02-19T10:55:28;10.30;99.90
13652;DHT22;6899;51.546;6.912;2023-02-19T10:57:57;10.40;99.90
13652;DHT22;6899;51.546;6.912;2023-02-19T11:00:45;10.80;99.90
13652;DHT22;6899;51.546;6.912;2023-02-19T11:03:19;10.90;99.90
13652;DHT22;6899;51.546;6.912;2023-02-19T11:05:53;11.20;99.90
13652;DHT22;6899;51.546;6.912;2023-02-19T11:08:22;11.20;99.90
13652;DHT22;6899;51.546;6.912;2023-02-19T11:10:49;11.40;99.90
13652;DHT22;6899;51.546;6.912;2023-02-19T11:13:27;11.40;99.90
13652;DHT22;6899;51.546;6.912;2023-02-19T11:15:59;11.40;99.90
13652;DHT22;6899;51.546;6.912;2023-02-19T11:18:28;11.30;99.90
13652;DHT22;6899;51.546;6.912;2023-02-19T11:20:57;11.30;99.90
13652;DHT22;6899;51.546;6.912;2023-02-19T11:23:27;11.40;99.90
13652;DHT22;6899;51.546;6.912;2023-02-19T11:25:56;11.60;99.90
13652;DHT22;6899;51.546;6.912;2023-02-19T11:28:31;11.40;99.90
13652;DHT22;6899;51.546;6.912;2023-02-19T11:31:25;11.00;99.90
13652;DHT22;6899;51.546;6.912;2023-02-19T11:33:55;10.50;99.90
13652;DHT22;6899;51.546;6.912;2023-02-19T11:36:28;10.50;99.90
13652;DHT22;6899;51.546;6.912;2023-02-19T11:38:56;10.70;99.90
13652;DHT22;6899;51.546;6.912;2023-02-19T11:41:50;10.60;99.90
13652;DHT22;6899;51.546;6.912;2023-02-19T11:44:28;10.20;99.90
13652;DHT22;6899;51.546;6.912;2023-02-19T11:47:23;10.20;99.90
13652;DHT22;6899;51.546;6.912;2023-02-19T11:49:58;10.30;99.90
13652;DHT22;6899;51.546;6.912;2023-02-19T11:52:33;10.50;99.90
13652;DHT22;6899;51.546;6.912;2023-02-19T11:55:09;10.60;99.90
13652;DHT22;6899;51.546;6.912;2023-02-19T11:57:41;10.50;99.90
13652;DHT22;6899;51.546;6.912;2023-02-19T12:00:19;10.30;99.90
13652;DHT22;6899;51.546;6.912;2023-02-19T12:06:10;10.20;99.90
13652;DHT22;6899;51.546;6.912;2023-02-19T12:11:48;10.20;99.90
13652;DHT22;6899;51.546;6.912;2023-02-19T12:15:01;10.30;99.90
13652;DHT22;6899;51.546;6.912;2023-02-19T12:24:38;11.00;99.90
13652;DHT22;6899;51.546;6.912;2023-02-19T12:27:36;10.40;99.90
13652;DHT22;6899;51.546;6.912;2023-02-19T12:30:47;10.10;99.90
13652;DHT22;6899;51.546;6.912;2023-02-19T12:33:54;9.50;99.90
13652;DHT22;6899;51.546;6.912;2023-02-19T12:36:47;9.30;99.90
13652;DHT22;6899;51.546;6.912;2023-02-19T12:39:24;9.30;99.90
13652;DHT22;6899;51.546;6.912;2023-02-19T12:42:07;9.30;99.90
13652;DHT22;6899;51.546;6.912;2023-02-19T12:44:44;9.30;99.90
13652;DHT22;6899;51.546;6.912;2023-02-19T12:47:21;9.30;99.90
13652;DHT22;6899;51.546;6.912;2023-02-19T12:49:57;9.50;99.90
13652;DHT22;6899;51.546;6.912;2023-02-19T12:52:33;9.60;99.90
13652;DHT22;6899;51.546;6.912;2023-02-19T12:55:16;9.70;99.90
13652;DHT22;6899;51.546;6.912;2023-02-19T12:57:52;9.80;99.90
13652;DHT22;6899;51.546;6.912;2023-02-19T13:00:36;9.80;99.90
13652;DHT22;6899;51.546;6.912;2023-02-19T13:03:11;9.90;99.90
13652;DHT22;6899;51.546;6.912;2023-02-19T13:06:09;10.10;99.90
13652;DHT22;6899;51.546;6.912;2023-02-19T13:08:45;10.40;99.90
13652;DHT22;6899;51.546;6.912;2023-02-19T13:11:48;10.30;99.90
13652;DHT22;6899;51.546;6.912;2023-02-19T13:17:37;10.40;99.90
13652;DHT22;6899;51.546;6.912;2023-02-19T13:20:17;10.50;99.90
13652;DHT22;6899;51.546;6.912;2023-02-19T13:23:00;10.40;99.90
13652;DHT22;6899;51.546;6.912;2023-02-19T13:26:02;10.30;99.90
13652;DHT22;6899;51.546;6.912;2023-02-19T13:28:48;10.30;99.90
13652;DHT22;6899;51.546;6.912;2023-02-19T13:31:48;10.20;99.90
13652;DHT22;6899;51.546;6.912;2023-02-19T13:34:31;10.20;99.90
13652;DHT22;6899;51.546;6.912;2023-02-19T13:37:06;10.30;99.90
13652;DHT22;6899;51.546;6.912;2023-02-19T13:40:05;10.30;99.90
13652;DHT22;6899;51.546;6.912;2023-02-19T13:43:05;10.30;99.90
13652;DHT22;6899;51.546;6.912;2023-02-19T13:45:57;10.10;99.90
13652;DHT22;6899;51.546;6.912;2023-02-19T13:48:35;9.90;99.90
13652;DHT22;6899;51.546;6.912;2023-02-19T13:51:54;9.90;99.90
13652;DHT22;6899;51.546;6.912;2023-02-19T13:54:44;9.60;99.90
13652;DHT22;6899;51.546;6.912;2023-02-19T13:57:32;9.60;99.90
13652;DHT22;6899;51.546;6.912;2023-02-19T14:03:46;10.00;99.90
13652;DHT22;6899;51.546;6.912;2023-02-19T14:06:20;10.20;99.90
13652;DHT22;6899;51.546;6.912;2023-02-19T14:19:06;10.10;99.90
13652;DHT22;6899;51.546;6.912;2023-02-19T14:21:58;10.00;99.90
13652;DHT22;6899;51.546;6.912;2023-02-19T14:24:49;10.00;99.90
13652;DHT22;6899;51.546;6.912;2023-02-19T14:27:39;10.00;99.90
13652;DHT22;6899;51.546;6.912;2023-02-19T14:30:27;9.90;99.90
13652;DHT22;6899;51.546;6.912;2023-02-19T14:33:48;9.70;99.90
13652;DHT22;6899;51.546;6.912;2023-02-19T14:36:48;9.90;99.90
13652;DHT22;6899;51.546;6.912;2023-02-19T14:42:23;9.80;99.90
13652;DHT22;6899;51.546;6.912;2023-02-19T14:45:13;10.00;99.90
13652;DHT22;6899;51.546;6.912;2023-02-19T14:47:56;10.10;99.90
13652;DHT22;6899;51.546;6.912;2023-02-19T14:50:41;10.10;99.90
13652;DHT22;6899;51.546;6.912;2023-02-19T14:56:54;9.90;99.90
13652;DHT22;6899;51.546;6.912;2023-02-19T14:59:26;9.70;99.90
13652;DHT22;6899;51.546;6.912;2023-02-19T15:02:00;9.60;99.90
13652;DHT22;6899;51.546;6.912;2023-02-19T15:04:38;9.50;99.90
13652;DHT22;6899;51.546;6.912;2023-02-19T15:07:35;9.50;99.90
13652;DHT22;6899;51.546;6.912;2023-02-19T15:10:08;9.50;99.90
13652;DHT22;6899;51.546;6.912;2023-02-19T15:13:22;9.50;99.90
13652;DHT22;6899;51.546;6.912;2023-02-19T15:16:17;9.40;99.90
13652;DHT22;6899;51.546;6.912;2023-02-19T15:18:47;9.50;99.90
13652;DHT22;6899;51.546;6.912;2023-02-19T15:21:28;9.60;99.90
13652;DHT22;6899;51.546;6.912;2023-02-19T15:24:05;9.70;99.90
13652;DHT22;6899;51.546;6.912;2023-02-19T15:26:37;9.60;99.90
13652;DHT22;6899;51.546;6.912;2023-02-19T15:29:29;9.50;99.90
13652;DHT22;6899;51.546;6.912;2023-02-19T15:32:21;9.40;99.90
13652;DHT22;6899;51.546;6.912;2023-02-19T15:35:17;9.30;99.90
13652;DHT22;6899;51.546;6.912;2023-02-19T15:37:45;9.20;99.90
13652;DHT22;6899;51.546;6.912;2023-02-19T15:43:35;8.90;99.90
13652;DHT22;6899;51.546;6.912;2023-02-19T15:46:17;8.90;99.90
13652;DHT22;6899;51.546;6.912;2023-02-19T15:49:01;8.80;99.90
13652;DHT22;6899;51.546;6.912;2023-02-19T15:51:46;8.80;99.90
13652;DHT22;6899;51.546;6.912;2023-02-19T15:54:33;8.80;99.90
13652;DHT22;6899;51.546;6.912;2023-02-19T15:57:18;8.80;99.90
13652;DHT22;6899;51.546;6.912;2023-02-19T16:00:04;8.90;99.90
13652;DHT22;6899;51.546;6.912;2023-02-19T16:02:55;8.80;99.90
13652;DHT22;6899;51.546;6.912;2023-02-19T16:07:19;8.80;99.90
13652;DHT22;6899;51.546;6.912;2023-02-19T16:09:19;8.80;99.90
13652;DHT22;6899;51.546;6.912;2023-02-19T16:11:49;8.80;99.90
13652;DHT22;6899;51.546;6.912;2023-02-19T16:14:28;8.80;99.90
13652;DHT22;6899;51.546;6.912;2023-02-19T16:17:11;8.70;99.90
13652;DHT22;6899;51.546;6.912;2023-02-19T16:19:44;8.80;99.90
13652;DHT22;6899;51.546;6.912;2023-02-19T16:22:15;8.80;99.90
13652;DHT22;6899;51.546;6.912;2023-02-19T16:24:45;8.70;99.90
13652;DHT22;6899;51.546;6.912;2023-02-19T16:27:13;8.70;99.90
13652;DHT22;6899;51.546;6.912;2023-02-19T16:29:52;8.60;99.90
13652;DHT22;6899;51.546;6.912;2023-02-19T16:32:20;8.60;99.90
13652;DHT22;6899;51.546;6.912;2023-02-19T16:34:50;8.50;99.90
13652;DHT22;6899;51.546;6.912;2023-02-19T16:37:31;8.50;99.90
13652;DHT22;6899;51.546;6.912;2023-02-19T16:43:27;8.40;99.90
13652;DHT22;6899;51.546;6.912;2023-02-19T16:45:57;8.40;99.90
13652;DHT22;6899;51.546;6.912;2023-02-19T16:48:24;8.40;99.90
13652;DHT22;6899;51.546;6.912;2023-02-19T16:50:51;8.30;99.90
13652;DHT22;6899;51.546;6.912;2023-02-19T16:53:23;8.30;99.90
13652;DHT22;6899;51.546;6.912;2023-02-19T16:55:53;8.30;99.90
13652;DHT22;6899;51.546;6.912;2023-02-19T16:58:20;8.30;99.90
13652;DHT22;6899;51.546;6.912;2023-02-19T17:00:47;8.20;99.90
13652;DHT22;6899;51.546;6.912;2023-02-19T17:03:19;8.20;99.90
13652;DHT22;6899;51.546;6.912;2023-02-19T17:05:46;8.20;99.90
13652;DHT22;6899;51.546;6.912;2023-02-19T17:08:27;8.20;99.90
13652;DHT22;6899;51.546;6.912;2023-02-19T17:11:00;8.20;99.90
13652;DHT22;6899;51.546;6.912;2023-02-19T17:13:27;8.10;99.90
13652;DHT22;6899;51.546;6.912;2023-02-19T17:15:54;8.10;99.90
13652;DHT22;6899;51.546;6.912;2023-02-19T17:18:23;8.10;99.90
13652;DHT22;6899;51.546;6.912;2023-02-19T17:20:53;8.00;99.90
13652;DHT22;6899;51.546;6.912;2023-02-19T17:23:21;8.00;99.90
13652;DHT22;6899;51.546;6.912;2023-02-19T17:25:47;8.00;99.90